createdAt,value
2023-05-12T00:00:00.223Z,76052.59
2023-05-12T00:01:33.641Z,76040.75
2023-05-12T00:03:07.087Z,76030.84
2023-05-12T00:04:40.835Z,76026.91
2023-05-12T00:06:14.467Z,76015.03
2023-05-12T00:07:48.038Z,76026.91
2023-05-12T00:09:21.303Z,76019.00
2023-05-12T00:10:54.482Z,76009.09
2023-05-12T00:12:27.873Z,76032.84
2023-05-12T00:14:01.286Z,76032.84
2023-05-12T00:15:34.741Z,75995.25
2023-05-12T00:17:08.191Z,76020.97
2023-05-12T00:18:41.325Z,75981.44
2023-05-12T00:20:14.523Z,75971.53
2023-05-12T00:21:48.209Z,75989.34
2023-05-12T00:23:22.951Z,75975.50
2023-05-12T00:24:56.064Z,75971.53
2023-05-12T00:26:29.275Z,75971.53
2023-05-12T00:28:02.472Z,75981.44
2023-05-12T00:29:37.113Z,75995.25
2023-05-12T00:31:10.379Z,76019.00
2023-05-12T00:32:43.504Z,76036.78
2023-05-12T00:34:16.756Z,76050.63
2023-05-12T00:35:49.840Z,76070.41
2023-05-12T00:37:23.096Z,76088.19
2023-05-12T00:38:56.576Z,76098.06
2023-05-12T00:40:29.743Z,76094.13
2023-05-12T00:42:03.398Z,76125.75
2023-05-12T00:43:36.877Z,76185.06
2023-05-12T00:45:10.768Z,76157.38
2023-05-12T00:46:43.959Z,76169.25
2023-05-12T00:48:17.341Z,76185.06
2023-05-12T00:49:50.460Z,76216.72
2023-05-12T00:51:24.870Z,76185.06
2023-05-12T00:52:59.254Z,76206.81
2023-05-12T00:54:32.936Z,76212.75
2023-05-12T00:56:06.183Z,76212.75
2023-05-12T00:57:40.604Z,76228.56
2023-05-12T00:59:14.254Z,76232.53
2023-05-12T01:00:47.925Z,76266.13
2023-05-12T01:02:22.510Z,76236.47
2023-05-12T01:03:56.939Z,76244.38
2023-05-12T01:05:39.889Z,76264.16
2023-05-12T01:07:22.769Z,76264.16
2023-05-12T01:08:58.388Z,76268.13
2023-05-12T01:10:31.725Z,76276.03
2023-05-12T01:12:05.348Z,76274.03
2023-05-12T01:13:41.462Z,76274.03
2023-05-12T01:15:15.080Z,76278.00
2023-05-12T01:17:00.812Z,76268.13
2023-05-12T01:18:38.563Z,76268.13
2023-05-12T01:20:13.949Z,76313.59
2023-05-12T01:21:48.337Z,76264.16
2023-05-12T01:23:31.848Z,76262.19
2023-05-12T01:25:08.926Z,76256.25
2023-05-12T01:26:42.975Z,76254.28
2023-05-12T01:28:17.076Z,76270.09
2023-05-12T01:29:52.222Z,76262.19
2023-05-12T01:31:26.336Z,76260.22
2023-05-12T01:32:59.591Z,76266.13
2023-05-12T01:34:34.821Z,76264.16
2023-05-12T01:36:08.097Z,76264.16
2023-05-12T01:37:41.636Z,76258.22
2023-05-12T01:39:14.866Z,76278.00
2023-05-12T01:40:48.133Z,76268.13
2023-05-12T01:42:23.902Z,76268.13
2023-05-12T01:43:57.310Z,76270.09
2023-05-12T01:45:31.448Z,76279.97
2023-05-12T01:47:04.632Z,76285.91
2023-05-12T01:48:41.240Z,76293.81
2023-05-12T01:50:14.959Z,76291.84
2023-05-12T01:51:48.174Z,76289.88
2023-05-12T01:53:28.273Z,76295.78
2023-05-12T01:55:01.568Z,76305.69
2023-05-12T01:56:39.957Z,76301.72
2023-05-12T01:58:13.515Z,76307.66
2023-05-12T01:59:47.193Z,76299.75
2023-05-12T02:01:20.504Z,76305.69
2023-05-12T02:02:53.849Z,76307.66
2023-05-12T02:04:27.725Z,76307.66
2023-05-12T02:06:02.427Z,76299.75
2023-05-12T02:07:36.463Z,76291.84
2023-05-12T02:09:09.573Z,76303.69
2023-05-12T02:10:42.958Z,76295.78
2023-05-12T02:12:16.411Z,76293.81
2023-05-12T02:13:49.488Z,76295.78
2023-05-12T02:15:23.314Z,76287.88
2023-05-12T02:16:57.209Z,76289.88
2023-05-12T02:18:32.121Z,76285.91
2023-05-12T02:20:25.248Z,76283.94
2023-05-12T02:21:58.633Z,76283.94
2023-05-12T02:23:32.231Z,76293.81
2023-05-12T02:25:06.030Z,76278.00
2023-05-12T02:26:39.526Z,76281.97
2023-05-12T02:28:12.726Z,76279.97
2023-05-12T02:29:47.096Z,76281.97
2023-05-12T02:31:21.501Z,76299.75
2023-05-12T02:32:55.376Z,76266.13
2023-05-12T02:34:28.854Z,76270.09
2023-05-12T02:36:03.367Z,76264.16
2023-05-12T02:37:39.479Z,76268.13
2023-05-12T02:39:13.743Z,76274.03
2023-05-12T02:40:48.215Z,76274.03
2023-05-12T02:42:22.265Z,76279.97
2023-05-12T02:43:55.532Z,76270.09
2023-05-12T02:45:29.352Z,76291.84
2023-05-12T02:47:02.831Z,76270.09
2023-05-12T02:48:35.770Z,76272.06
2023-05-12T02:50:09.903Z,76266.13
2023-05-12T02:51:43.122Z,76266.13
2023-05-12T02:53:16.790Z,76276.03
2023-05-12T02:54:50.062Z,76274.03
2023-05-12T02:56:23.244Z,76283.94
2023-05-12T02:57:56.950Z,76268.13
2023-05-12T02:59:31.061Z,76252.28
2023-05-12T03:01:10.791Z,76260.22
2023-05-12T03:02:45.207Z,76252.28
2023-05-12T03:04:18.556Z,76240.44
2023-05-12T03:05:53.854Z,76236.47
2023-05-12T03:07:27.333Z,76230.53
2023-05-12T03:09:01.302Z,76240.44
2023-05-12T03:10:36.892Z,76224.63
2023-05-12T03:12:10.179Z,76232.53
2023-05-12T03:13:43.541Z,76236.47
2023-05-12T03:15:16.925Z,76246.38
2023-05-12T03:16:50.370Z,76238.47
2023-05-12T03:18:23.523Z,76236.47
2023-05-12T03:19:57.159Z,76242.41
2023-05-12T03:21:30.245Z,76220.66
2023-05-12T03:23:04.291Z,76218.69
2023-05-12T03:24:37.353Z,76212.75
2023-05-12T03:26:11.288Z,76212.75
2023-05-12T03:27:45.014Z,76198.91
2023-05-12T03:29:18.384Z,76204.84
2023-05-12T03:30:51.792Z,76200.88
2023-05-12T03:32:25.224Z,76185.06
2023-05-12T03:33:58.197Z,76181.13
2023-05-12T03:35:32.568Z,76177.16
2023-05-12T03:37:08.305Z,76173.22
2023-05-12T03:38:41.604Z,76157.38
2023-05-12T03:40:19.260Z,76157.38
2023-05-12T03:41:53.246Z,76165.31
2023-05-12T03:43:26.339Z,76149.47
2023-05-12T03:44:59.537Z,76141.56
2023-05-12T03:46:33.353Z,76147.50
2023-05-12T03:48:07.458Z,76149.47
2023-05-12T03:49:40.808Z,76139.59
2023-05-12T03:51:13.815Z,76139.59
2023-05-12T03:52:47.237Z,76145.53
2023-05-12T03:54:20.667Z,76161.34
2023-05-12T03:55:53.753Z,76145.53
2023-05-12T03:57:26.905Z,76155.41
2023-05-12T03:59:00.300Z,76151.47
2023-05-12T04:00:33.752Z,76163.31
2023-05-12T04:02:08.102Z,76137.63
2023-05-12T04:03:43.953Z,76149.47
2023-05-12T04:05:17.135Z,76159.38
2023-05-12T04:06:50.391Z,76157.38
2023-05-12T04:08:25.041Z,76139.59
2023-05-12T04:09:58.325Z,76127.72
2023-05-12T04:11:31.539Z,76131.69
2023-05-12T04:13:08.375Z,76137.63
2023-05-12T04:14:43.109Z,76125.75
2023-05-12T04:16:16.644Z,76113.91
2023-05-12T04:17:51.511Z,76117.84
2023-05-12T04:19:25.866Z,76135.63
2023-05-12T04:20:59.252Z,76117.84
2023-05-12T04:22:32.636Z,76135.63
2023-05-12T04:24:06.093Z,76129.72
2023-05-12T04:25:43.408Z,76127.72
2023-05-12T04:27:19.589Z,76113.91
2023-05-12T04:28:52.689Z,76104.00
2023-05-12T04:30:26.134Z,76107.97
2023-05-12T04:32:00.558Z,76105.97
2023-05-12T04:33:34.196Z,76090.16
2023-05-12T04:35:08.038Z,76074.34
2023-05-12T04:36:42.101Z,76076.31
2023-05-12T04:38:15.577Z,76066.44
2023-05-12T04:39:49.174Z,76050.63
2023-05-12T04:41:25.706Z,76052.59
2023-05-12T04:42:58.912Z,76054.56
2023-05-12T04:44:32.794Z,76050.63
2023-05-12T04:46:06.653Z,76050.63
2023-05-12T04:47:39.814Z,76070.41
2023-05-12T04:49:13.100Z,76056.56
2023-05-12T04:50:47.887Z,76046.66
2023-05-12T04:52:24.561Z,76050.63
2023-05-12T04:53:58.106Z,76052.59
2023-05-12T04:55:32.081Z,76046.66
2023-05-12T04:57:05.702Z,76056.56
2023-05-12T04:58:38.879Z,76062.50
2023-05-12T05:00:13.330Z,76066.44
2023-05-12T05:01:46.845Z,76056.56
2023-05-12T05:03:21.395Z,76038.75
2023-05-12T05:04:55.044Z,76028.88
2023-05-12T05:06:31.020Z,76054.56
2023-05-12T05:08:05.405Z,76058.53
2023-05-12T05:09:39.608Z,76052.59
2023-05-12T05:11:13.016Z,76032.84
2023-05-12T05:12:46.182Z,76046.66
2023-05-12T05:14:19.381Z,76050.63
2023-05-12T05:15:53.722Z,76042.72
2023-05-12T05:17:29.460Z,76042.72
2023-05-12T05:19:06.511Z,76046.66
2023-05-12T05:20:45.137Z,76046.66
2023-05-12T05:22:20.495Z,76048.66
2023-05-12T05:23:53.889Z,76042.72
2023-05-12T05:25:28.747Z,76044.69
2023-05-12T05:27:02.267Z,76036.78
2023-05-12T05:28:36.859Z,76046.66
2023-05-12T05:30:10.953Z,76052.59
2023-05-12T05:31:45.747Z,76026.91
2023-05-12T05:33:20.191Z,76026.91
2023-05-12T05:34:53.752Z,76020.97
2023-05-12T05:36:27.429Z,76003.16
2023-05-12T05:38:00.480Z,76005.16
2023-05-12T05:39:33.839Z,76015.03
2023-05-12T05:41:07.581Z,76019.00
2023-05-12T05:42:41.141Z,76007.13
2023-05-12T05:44:14.312Z,76007.13
2023-05-12T05:45:49.648Z,76011.09
2023-05-12T05:47:23.027Z,75997.25
2023-05-12T05:48:56.782Z,76003.16
2023-05-12T05:50:29.996Z,76001.19
2023-05-12T05:52:03.262Z,76005.16
2023-05-12T05:53:37.128Z,75995.25
2023-05-12T05:55:11.056Z,76013.06
2023-05-12T05:56:44.190Z,76007.13
2023-05-12T05:58:17.777Z,76009.09
2023-05-12T05:59:52.187Z,76007.13
2023-05-12T06:01:25.260Z,76003.16
2023-05-12T06:02:58.827Z,76003.16
2023-05-12T06:04:32.189Z,76005.16
2023-05-12T06:06:05.633Z,75991.31
2023-05-12T06:07:39.086Z,75991.31
2023-05-12T06:09:13.011Z,76007.13
2023-05-12T06:10:48.103Z,75995.25
2023-05-12T06:12:23.653Z,76007.13
2023-05-12T06:13:56.857Z,76026.91
2023-05-12T06:15:32.570Z,76024.91
2023-05-12T06:17:06.232Z,76007.13
2023-05-12T06:18:39.685Z,76011.09
2023-05-12T06:20:16.190Z,75997.25
2023-05-12T06:21:52.920Z,76003.16
2023-05-12T06:23:26.085Z,76003.16
2023-05-12T06:24:59.434Z,76024.91
2023-05-12T06:26:32.611Z,76062.50
2023-05-12T06:28:05.790Z,76038.75
2023-05-12T06:29:38.781Z,76046.66
2023-05-12T06:31:12.017Z,76054.56
2023-05-12T06:32:45.958Z,76062.50
2023-05-12T06:34:19.181Z,76066.44
2023-05-12T06:35:52.747Z,76074.34
2023-05-12T06:37:26.034Z,76070.41
2023-05-12T06:38:59.975Z,76070.41
2023-05-12T06:40:33.494Z,76074.34
2023-05-12T06:42:07.023Z,76080.28
2023-05-12T06:43:47.392Z,76078.31
2023-05-12T06:45:21.717Z,76078.31
2023-05-12T06:46:55.186Z,76074.34
2023-05-12T06:48:28.564Z,76076.31
2023-05-12T06:50:03.861Z,76088.19
2023-05-12T06:51:37.233Z,76090.16
2023-05-12T06:53:10.427Z,76100.06
2023-05-12T06:54:43.791Z,76094.13
2023-05-12T06:56:20.220Z,76096.09
2023-05-12T06:57:56.255Z,76098.06
2023-05-12T06:59:29.629Z,76094.13
2023-05-12T07:01:03.570Z,76104.00
2023-05-12T07:02:37.714Z,76117.84
2023-05-12T07:04:10.923Z,76131.69
2023-05-12T07:05:44.495Z,76137.63
2023-05-12T07:07:18.024Z,76139.59
2023-05-12T07:08:51.123Z,76123.78
2023-05-12T07:10:24.458Z,76149.47
2023-05-12T07:11:57.683Z,76157.38
2023-05-12T07:13:30.890Z,76177.16
2023-05-12T07:15:05.334Z,76169.25
2023-05-12T07:16:38.792Z,76185.06
2023-05-12T07:18:14.768Z,76189.03
2023-05-12T07:19:48.278Z,76196.94
2023-05-12T07:21:22.423Z,76185.06
2023-05-12T07:22:56.857Z,76181.13
2023-05-12T07:24:30.146Z,76167.28
2023-05-12T07:26:04.880Z,76167.28
2023-05-12T07:27:38.315Z,76185.06
2023-05-12T07:29:13.754Z,76157.38
2023-05-12T07:30:47.517Z,76185.06
2023-05-12T07:32:20.801Z,76171.22
2023-05-12T07:33:53.927Z,76161.34
2023-05-12T07:35:27.974Z,76139.59
2023-05-12T07:37:04.687Z,76145.53
2023-05-12T07:38:37.876Z,76133.66
2023-05-12T07:40:11.334Z,76125.75
2023-05-12T07:41:44.518Z,76127.72
2023-05-12T07:43:25.240Z,76090.16
2023-05-12T07:44:58.618Z,76064.47
2023-05-12T07:46:33.886Z,76032.84
2023-05-12T07:48:08.863Z,76017.00
2023-05-12T07:49:42.418Z,76024.91
2023-05-12T07:51:15.566Z,76022.94
2023-05-12T07:52:50.822Z,76015.03
2023-05-12T07:54:24.082Z,76024.91
2023-05-12T07:55:57.593Z,76030.84
2023-05-12T07:57:31.327Z,76019.00
2023-05-12T07:59:04.576Z,76022.94
2023-05-12T08:00:37.702Z,76019.00
2023-05-12T08:02:10.824Z,75987.34
2023-05-12T08:03:44.342Z,75991.31
2023-05-12T08:05:18.346Z,75981.44
2023-05-12T08:06:51.920Z,75979.44
2023-05-12T08:08:25.144Z,75967.59
2023-05-12T08:09:58.694Z,75955.72
2023-05-12T08:11:32.032Z,75963.63
2023-05-12T08:13:06.889Z,75943.88
2023-05-12T08:14:40.376Z,75945.84
2023-05-12T08:16:13.771Z,75947.81
2023-05-12T08:17:46.508Z,75920.13
2023-05-12T08:19:19.772Z,75920.13
2023-05-12T08:20:52.707Z,75935.94
2023-05-12T08:22:26.190Z,75914.19
2023-05-12T08:23:59.310Z,75906.28
2023-05-12T08:25:35.175Z,75916.19
2023-05-12T08:27:08.223Z,75892.47
2023-05-12T08:28:41.115Z,75884.56
2023-05-12T08:30:14.474Z,75900.38
2023-05-12T08:31:47.753Z,75900.38
2023-05-12T08:33:21.031Z,75900.38
2023-05-12T08:34:54.198Z,75900.38
2023-05-12T08:36:27.420Z,75900.38
2023-05-12T08:38:00.611Z,75935.94
2023-05-12T08:39:34.205Z,75920.13
2023-05-12T08:41:42.336Z,75930.03
2023-05-12T08:43:26.700Z,75955.72
2023-05-12T08:45:01.519Z,75949.78
2023-05-12T08:46:38.832Z,75967.59
2023-05-12T08:48:16.279Z,76020.97
2023-05-12T08:50:00.522Z,75991.31
2023-05-12T08:51:34.128Z,76042.72
2023-05-12T08:53:11.773Z,76026.91
2023-05-12T08:54:54.982Z,76074.34
2023-05-12T08:58:06.750Z,76052.59
2023-05-12T08:59:45.119Z,76042.72
2023-05-12T09:01:24.853Z,76050.63
2023-05-12T09:03:01.507Z,76050.63
2023-05-12T09:04:37.022Z,76050.63
2023-05-12T09:06:12.476Z,76050.63
2023-05-12T09:07:46.370Z,76121.81
2023-05-12T09:09:21.123Z,76066.44
2023-05-12T09:10:57.213Z,76030.84
2023-05-12T09:12:34.653Z,76038.75
2023-05-12T09:14:19.939Z,76046.66
2023-05-12T09:15:57.000Z,76050.63
2023-05-12T09:17:30.317Z,76036.78
2023-05-12T09:19:06.734Z,76034.81
2023-05-12T09:20:40.290Z,76052.59
2023-05-12T09:22:15.216Z,76034.81
2023-05-12T09:23:58.690Z,76038.75
2023-05-12T09:25:32.008Z,76034.81
2023-05-12T09:27:06.635Z,76024.91
2023-05-12T09:28:39.932Z,76024.91
2023-05-12T09:30:13.681Z,76015.03
2023-05-12T09:31:54.064Z,76011.09
2023-05-12T09:33:27.225Z,75995.25
2023-05-12T09:35:08.123Z,76017.00
2023-05-12T09:36:42.068Z,75999.22
2023-05-12T09:38:15.637Z,75993.28
2023-05-12T09:39:59.174Z,75993.28
2023-05-12T09:41:35.245Z,75987.34
2023-05-12T09:43:08.826Z,76001.19
2023-05-12T09:44:43.763Z,76007.13
2023-05-12T09:46:17.101Z,76007.13
2023-05-12T09:47:50.432Z,76007.13
2023-05-12T09:49:31.239Z,75999.22
2023-05-12T09:51:04.610Z,75991.31
2023-05-12T09:52:39.854Z,75987.34
2023-05-12T09:54:13.109Z,76022.94
2023-05-12T09:55:49.749Z,75983.41
2023-05-12T09:57:26.065Z,75973.50
2023-05-12T09:59:00.345Z,76003.16
2023-05-12T10:00:58.641Z,75963.63
2023-05-12T10:02:28.951Z,75959.69
2023-05-12T10:04:04.828Z,75943.88
2023-05-12T10:05:44.510Z,75953.75
2023-05-12T10:07:22.994Z,75937.94
2023-05-12T10:09:09.508Z,75922.13
2023-05-12T10:10:43.201Z,75910.25
2023-05-12T10:12:17.616Z,75904.31
2023-05-12T10:13:51.016Z,75898.38
2023-05-12T10:15:26.109Z,75896.41
2023-05-12T10:17:00.585Z,75890.47
2023-05-12T10:18:35.234Z,75884.56
2023-05-12T10:20:11.676Z,75882.56
2023-05-12T10:21:46.521Z,75872.69
2023-05-12T10:23:20.565Z,75886.53
2023-05-12T10:24:56.794Z,75854.91
2023-05-12T10:26:31.604Z,75856.88
2023-05-12T10:28:05.348Z,75856.88
2023-05-12T10:29:39.340Z,75848.97
2023-05-12T10:31:13.795Z,75831.16
2023-05-12T10:32:47.099Z,75823.25
2023-05-12T10:34:20.534Z,75839.06
2023-05-12T10:35:54.066Z,75817.31
2023-05-12T10:37:29.791Z,75811.41
2023-05-12T10:39:06.695Z,75791.63
2023-05-12T10:41:01.401Z,75783.72
2023-05-12T10:42:43.367Z,75769.88
2023-05-12T10:44:28.536Z,75760.00
2023-05-12T10:46:13.466Z,75758.03
2023-05-12T10:47:48.111Z,75754.06
2023-05-12T10:49:33.509Z,75738.25
2023-05-12T10:51:08.649Z,75730.34
2023-05-12T10:52:54.794Z,75730.34
2023-05-12T10:54:28.511Z,75724.41
2023-05-12T10:56:08.501Z,75698.72
2023-05-12T10:57:52.174Z,75712.56
2023-05-12T10:59:29.665Z,75708.59
2023-05-12T11:01:08.025Z,75647.31
2023-05-12T11:02:52.448Z,75639.41
2023-05-12T11:04:38.382Z,75619.63
2023-05-12T11:06:19.766Z,75595.91
2023-05-12T11:07:53.348Z,75599.88
2023-05-12T11:09:29.120Z,75591.97
2023-05-12T11:11:03.300Z,75593.94
2023-05-12T11:12:37.683Z,75603.81
2023-05-12T11:14:11.214Z,75603.81
2023-05-12T11:15:48.360Z,75595.91
2023-05-12T11:17:21.899Z,75591.97
2023-05-12T11:19:05.912Z,75580.09
2023-05-12T11:20:39.408Z,75584.06
2023-05-12T11:22:13.241Z,75582.06
2023-05-12T11:23:51.407Z,75584.06
2023-05-12T11:25:27.678Z,75599.88
2023-05-12T11:27:01.165Z,75674.97
2023-05-12T11:28:41.621Z,75635.44
2023-05-12T11:30:14.948Z,75661.16
2023-05-12T11:31:49.634Z,75639.41
2023-05-12T11:33:23.560Z,75710.56
2023-05-12T11:34:56.988Z,75688.81
2023-05-12T11:36:36.124Z,75694.75
2023-05-12T11:38:17.675Z,75698.72
2023-05-12T11:39:53.258Z,75702.66
2023-05-12T11:41:26.689Z,75698.72
2023-05-12T11:43:10.879Z,75682.91
2023-05-12T11:44:48.542Z,75669.06
2023-05-12T11:46:28.967Z,75674.97
2023-05-12T11:48:13.217Z,75669.06
2023-05-12T11:49:57.454Z,75669.06
2023-05-12T11:51:30.699Z,75659.16
2023-05-12T11:53:03.784Z,75647.31
2023-05-12T11:54:38.041Z,75623.59
2023-05-12T11:56:19.572Z,75609.75
2023-05-12T11:58:04.375Z,75584.06
2023-05-12T11:59:37.748Z,75566.25
2023-05-12T12:01:14.144Z,75552.41
2023-05-12T12:02:50.738Z,75524.75
2023-05-12T12:04:42.156Z,75516.84
2023-05-12T12:06:16.109Z,75485.19
2023-05-12T12:07:49.204Z,75481.25
2023-05-12T12:09:37.597Z,75449.63
2023-05-12T12:11:11.756Z,75443.69
2023-05-12T12:12:46.393Z,75418.00
2023-05-12T12:14:19.417Z,75402.19
2023-05-12T12:15:53.190Z,75382.41
2023-05-12T12:17:31.104Z,75396.25
2023-05-12T12:19:04.671Z,75443.69
2023-05-12T12:20:37.580Z,75469.38
2023-05-12T12:22:11.273Z,75457.53
2023-05-12T12:23:51.003Z,75437.75
2023-05-12T12:25:25.264Z,75429.84
2023-05-12T12:26:58.679Z,75414.03
2023-05-12T12:28:32.005Z,75386.38
2023-05-12T12:30:05.970Z,75382.41
2023-05-12T12:31:39.127Z,75376.47
2023-05-12T12:33:12.293Z,75386.38
2023-05-12T12:34:46.666Z,75374.50
2023-05-12T12:36:20.065Z,75362.63
2023-05-12T12:37:53.089Z,75342.88
2023-05-12T12:39:26.289Z,75315.19
2023-05-12T12:40:59.667Z,75342.88
2023-05-12T12:42:33.062Z,75301.38
2023-05-12T12:44:06.352Z,75267.75
2023-05-12T12:45:39.153Z,75244.03
2023-05-12T12:47:12.513Z,75238.09
2023-05-12T12:48:46.008Z,75224.28
2023-05-12T12:50:19.437Z,75222.28
2023-05-12T12:51:52.548Z,75224.28
2023-05-12T12:53:25.714Z,75210.44
2023-05-12T12:54:59.048Z,75236.13
2023-05-12T12:56:32.656Z,75222.28
2023-05-12T12:58:05.964Z,75216.38
2023-05-12T12:59:39.108Z,75238.09
2023-05-12T13:01:12.365Z,75236.13
2023-05-12T13:02:46.001Z,75224.28
2023-05-12T13:04:23.131Z,75224.28
2023-05-12T13:05:56.239Z,75216.38
2023-05-12T13:07:29.513Z,75220.31
2023-05-12T13:09:02.688Z,75224.28
2023-05-12T13:10:35.882Z,75226.25
2023-05-12T13:12:09.184Z,75204.50
2023-05-12T13:13:42.241Z,75232.19
2023-05-12T13:15:15.991Z,75222.28
2023-05-12T13:16:49.714Z,75220.31
2023-05-12T13:18:22.956Z,75240.09
2023-05-12T13:19:56.040Z,75244.03
2023-05-12T13:21:29.148Z,75248.00
2023-05-12T13:23:02.405Z,75248.00
2023-05-12T13:24:35.427Z,75277.63
2023-05-12T13:26:09.215Z,75251.94
2023-05-12T13:27:42.206Z,75251.94
2023-05-12T13:29:15.912Z,75267.75
2023-05-12T13:30:49.311Z,75279.63
2023-05-12T13:32:22.688Z,75267.75
2023-05-12T13:33:56.618Z,75259.84
2023-05-12T13:35:30.516Z,75259.84
2023-05-12T13:37:07.006Z,75253.91
2023-05-12T13:38:40.062Z,75263.81
2023-05-12T13:40:13.676Z,75265.78
2023-05-12T13:41:47.589Z,75251.94
2023-05-12T13:43:21.793Z,75253.91
2023-05-12T13:44:54.833Z,75255.91
2023-05-12T13:46:27.959Z,75257.88
2023-05-12T13:48:01.235Z,75271.72
2023-05-12T13:49:35.757Z,75323.09
2023-05-12T13:51:09.020Z,75297.41
2023-05-12T13:52:42.323Z,75311.25
2023-05-12T13:54:28.201Z,75315.19
2023-05-12T13:56:01.607Z,75315.19
2023-05-12T13:57:34.788Z,75319.16
2023-05-12T13:59:09.759Z,75327.06
2023-05-12T14:00:43.293Z,75327.06
2023-05-12T14:02:16.529Z,75323.09
2023-05-12T14:03:49.668Z,75315.19
2023-05-12T14:05:23.206Z,75317.19
2023-05-12T14:06:56.900Z,75307.28
2023-05-12T14:08:30.606Z,75321.13
2023-05-12T14:10:04.273Z,75303.34
2023-05-12T14:11:39.236Z,75309.28
2023-05-12T14:13:13.927Z,75311.25
2023-05-12T14:14:50.312Z,75315.19
2023-05-12T14:16:23.584Z,75309.28
2023-05-12T14:17:56.769Z,75305.31
2023-05-12T14:19:30.735Z,75309.28
2023-05-12T14:21:04.022Z,75307.28
2023-05-12T14:22:37.347Z,75303.34
2023-05-12T14:24:10.939Z,75321.13
2023-05-12T14:25:44.112Z,75319.16
2023-05-12T14:27:16.863Z,75315.19
2023-05-12T14:28:51.181Z,75321.13
2023-05-12T14:30:25.160Z,75319.16
2023-05-12T14:31:58.527Z,75323.09
2023-05-12T14:33:32.034Z,75331.00
2023-05-12T14:35:07.708Z,75319.16
2023-05-12T14:36:41.601Z,75323.09
2023-05-12T14:38:15.324Z,75334.97
2023-05-12T14:39:48.433Z,75327.06
2023-05-12T14:41:22.973Z,75331.00
2023-05-12T14:42:56.718Z,75321.13
2023-05-12T14:44:30.048Z,75331.00
2023-05-12T14:46:03.357Z,75329.03
2023-05-12T14:47:37.138Z,75329.03
2023-05-12T14:49:12.697Z,75325.09
2023-05-12T14:50:46.191Z,75327.06
2023-05-12T14:52:19.144Z,75331.00
2023-05-12T14:53:52.397Z,75331.00
2023-05-12T14:55:26.366Z,75340.91
2023-05-12T14:56:59.654Z,75374.50
2023-05-12T14:58:32.808Z,75346.81
2023-05-12T15:00:11.305Z,75342.88
2023-05-12T15:01:44.496Z,75342.88
2023-05-12T15:03:18.147Z,75338.91
2023-05-12T15:04:51.529Z,75356.72
2023-05-12T15:06:24.973Z,75346.81
2023-05-12T15:07:58.548Z,75350.78
2023-05-12T15:09:31.541Z,75344.84
2023-05-12T15:11:05.146Z,75348.81
2023-05-12T15:12:38.625Z,75348.81
2023-05-12T15:14:13.706Z,75344.84
2023-05-12T15:15:47.062Z,75350.78
2023-05-12T15:17:19.933Z,75356.72
2023-05-12T15:18:53.048Z,75366.59
2023-05-12T15:20:26.530Z,75372.53
2023-05-12T15:22:00.273Z,75370.53
2023-05-12T15:23:33.569Z,75366.59
2023-05-12T15:25:07.475Z,75356.72
2023-05-12T15:26:41.413Z,75362.63
2023-05-12T15:28:14.583Z,75366.59
2023-05-12T15:29:47.847Z,75358.69
2023-05-12T15:31:21.475Z,75372.53
2023-05-12T15:32:54.771Z,75358.69
2023-05-12T15:34:28.037Z,75354.72
2023-05-12T15:36:01.199Z,75364.63
2023-05-12T15:37:34.328Z,75368.56
2023-05-12T15:39:07.245Z,75380.44
2023-05-12T15:40:40.617Z,75384.38
2023-05-12T15:42:14.654Z,75382.41
2023-05-12T15:43:52.934Z,75394.28
2023-05-12T15:45:26.324Z,75378.47
2023-05-12T15:46:59.535Z,75374.50
2023-05-12T15:48:33.096Z,75374.50
2023-05-12T15:50:07.575Z,75390.31
2023-05-12T15:51:41.384Z,75378.47
2023-05-12T15:53:14.586Z,75378.47
2023-05-12T15:54:49.045Z,75388.34
2023-05-12T15:56:23.327Z,75396.25
2023-05-12T15:57:57.005Z,75404.16
2023-05-12T15:59:30.194Z,75402.19
2023-05-12T16:01:03.585Z,75412.06
2023-05-12T16:02:37.156Z,75418.00
2023-05-12T16:04:10.496Z,75418.00
2023-05-12T16:05:44.618Z,75429.84
2023-05-12T16:07:18.208Z,75429.84
2023-05-12T16:08:51.495Z,75423.94
2023-05-12T16:10:24.895Z,75429.84
2023-05-12T16:11:58.303Z,75404.16
2023-05-12T16:13:31.347Z,75398.22
2023-05-12T16:15:05.292Z,75392.28
2023-05-12T16:16:43.280Z,75390.31
2023-05-12T16:18:16.650Z,75396.25
2023-05-12T16:19:50.633Z,75388.34
2023-05-12T16:21:23.778Z,75390.31
2023-05-12T16:22:56.977Z,75390.31
2023-05-12T16:24:30.233Z,75380.44
2023-05-12T16:26:03.152Z,75376.47
2023-05-12T16:27:36.927Z,75372.53
2023-05-12T16:29:10.438Z,75362.63
2023-05-12T16:30:44.531Z,75370.53
2023-05-12T16:32:17.784Z,75390.31
2023-05-12T16:33:51.373Z,75378.47
2023-05-12T16:35:24.899Z,75370.53
2023-05-12T16:36:58.100Z,75366.59
2023-05-12T16:38:32.695Z,75362.63
2023-05-12T16:40:06.492Z,75358.69
2023-05-12T16:41:40.285Z,75354.72
2023-05-12T16:43:13.347Z,75362.63
2023-05-12T16:44:49.590Z,75354.72
2023-05-12T16:46:22.866Z,75372.53
2023-05-12T16:47:56.827Z,75378.47
2023-05-12T16:49:29.958Z,75386.38
2023-05-12T16:51:07.089Z,75370.53
2023-05-12T16:52:40.507Z,75414.03
2023-05-12T16:54:13.623Z,75386.38
2023-05-12T16:55:46.531Z,75382.41
2023-05-12T16:57:19.984Z,75386.38
2023-05-12T16:58:53.303Z,75390.31
2023-05-12T17:00:26.520Z,75396.25
2023-05-12T17:02:00.368Z,75414.03
2023-05-12T17:03:33.747Z,75408.09
2023-05-12T17:05:07.446Z,75414.03
2023-05-12T17:06:40.634Z,75447.66
2023-05-12T17:08:13.810Z,75410.09
2023-05-12T17:09:46.993Z,75414.03
2023-05-12T17:11:20.114Z,75414.03
2023-05-12T17:12:53.378Z,75412.06
2023-05-12T17:14:26.608Z,75423.94
2023-05-12T17:15:59.878Z,75402.19
2023-05-12T17:17:33.190Z,75406.13
2023-05-12T17:20:42.615Z,75402.19
2023-05-12T17:22:16.261Z,75416.00
2023-05-12T17:23:49.549Z,75396.25
2023-05-12T17:25:23.650Z,75410.09
2023-05-12T17:27:00.076Z,75418.00
2023-05-12T17:28:33.361Z,75400.19
2023-05-12T17:30:07.316Z,75390.31
2023-05-12T17:31:40.909Z,75400.19
2023-05-12T17:33:15.835Z,75408.09
2023-05-12T17:34:52.119Z,75404.16
2023-05-12T17:36:25.686Z,75412.06
2023-05-12T17:37:59.164Z,75412.06
2023-05-12T17:39:32.975Z,75410.09
2023-05-12T17:41:06.582Z,75410.09
2023-05-12T17:42:40.356Z,75406.13
2023-05-12T17:44:13.579Z,75418.00
2023-05-12T17:45:46.804Z,75423.94
2023-05-12T17:47:19.856Z,75418.00
2023-05-12T17:48:52.988Z,75437.75
2023-05-12T17:50:26.322Z,75429.84
2023-05-12T17:52:03.968Z,75445.66
2023-05-12T17:53:37.221Z,75425.91
2023-05-12T17:55:10.846Z,75429.84
2023-05-12T17:56:44.941Z,75447.66
2023-05-12T17:58:18.013Z,75441.72
2023-05-12T17:59:51.261Z,75453.56
2023-05-12T18:01:26.198Z,75457.53
2023-05-12T18:02:59.331Z,75465.44
2023-05-12T18:04:32.933Z,75467.41
2023-05-12T18:06:12.951Z,75467.41
2023-05-12T18:07:46.123Z,75465.44
2023-05-12T18:09:23.876Z,75473.34
2023-05-12T18:10:57.570Z,75477.28
2023-05-12T18:12:31.145Z,75489.16
2023-05-12T18:14:06.256Z,75483.22
2023-05-12T18:15:39.868Z,75524.75
2023-05-12T18:17:12.889Z,75489.16
2023-05-12T18:18:47.267Z,75495.09
2023-05-12T18:20:20.797Z,75501.03
2023-05-12T18:21:54.371Z,75504.97
2023-05-12T18:23:27.856Z,75501.03
2023-05-12T18:25:01.108Z,75504.97
2023-05-12T18:26:34.191Z,75510.91
2023-05-12T18:28:07.847Z,75506.94
2023-05-12T18:29:40.871Z,75506.94
2023-05-12T18:31:16.373Z,75512.88
2023-05-12T18:32:50.060Z,75512.88
2023-05-12T18:34:23.972Z,75508.94